sensor_id;sensor_type;location;lat;lon;timestamp;pressure;altitude;pressure_sealevel;temperature;humidity
76448;BME280;65284;51.040;13.722;2023-05-29T00:02:03;100180.75;;;14.87;56.55
76448;BME280;65284;51.040;13.722;2023-05-29T00:04:29;100173.03;;;14.63;57.05
76448;BME280;65284;51.040;13.722;2023-05-29T00:06:56;100174.13;;;14.53;57.07
76448;BME280;65284;51.040;13.722;2023-05-29T00:09:22;100168.53;;;14.40;57.43
76448;BME280;65284;51.040;13.722;2023-05-29T00:11:49;100171.44;;;14.16;58.23
76448;BME280;65284;51.040;13.722;2023-05-29T00:14:19;100174.41;;;13.75;59.39
76448;BME280;65284;51.040;13.722;2023-05-29T00:16:46;100175.03;;;13.85;59.25
76448;BME280;65284;51.040;13.722;2023-05-29T00:19:13;100174.47;;;13.89;59.48
76448;BME280;65284;51.040;13.722;2023-05-29T00:21:40;100172.44;;;13.69;59.87
76448;BME280;65284;51.040;13.722;2023-05-29T00:24:07;100166.34;;;13.83;59.57
76448;BME280;65284;51.040;13.722;2023-05-29T00:26:33;100165.31;;;13.38;60.67
76448;BME280;65284;51.040;13.722;2023-05-29T00:29:00;100157.91;;;13.48;60.55
76448;BME280;65284;51.040;13.722;2023-05-29T00:31:27;100156.63;;;13.67;60.07
76448;BME280;65284;51.040;13.722;2023-05-29T00:33:54;100157.31;;;13.84;59.86
76448;BME280;65284;51.040;13.722;2023-05-29T00:36:21;100152.81;;;13.61;59.97
76448;BME280;65284;51.040;13.722;2023-05-29T00:38:48;100156.97;;;13.87;59.64
76448;BME280;65284;51.040;13.722;2023-05-29T00:41:15;100161.13;;;13.89;59.41
76448;BME280;65284;51.040;13.722;2023-05-29T00:43:42;100162.19;;;14.03;59.05
76448;BME280;65284;51.040;13.722;2023-05-29T00:46:12;100161.81;;;14.06;58.98
76448;BME280;65284;51.040;13.722;2023-05-29T00:48:40;100151.44;;;14.11;58.77
76448;BME280;65284;51.040;13.722;2023-05-29T00:51:08;100154.28;;;14.10;59.13
76448;BME280;65284;51.040;13.722;2023-05-29T00:53:35;100146.53;;;14.00;59.31
76448;BME280;65284;51.040;13.722;2023-05-29T00:56:02;100157.72;;;13.96;59.34
76448;BME280;65284;51.040;13.722;2023-05-29T00:58:30;100149.97;;;13.86;59.15
76448;BME280;65284;51.040;13.722;2023-05-29T01:00:57;100162.31;;;13.87;59.20
76448;BME280;65284;51.040;13.722;2023-05-29T01:03:24;100153.31;;;13.88;59.45
76448;BME280;65284;51.040;13.722;2023-05-29T01:05:50;100158.25;;;13.45;60.01
76448;BME280;65284;51.040;13.722;2023-05-29T01:08:19;100160.06;;;13.76;59.42
76448;BME280;65284;51.040;13.722;2023-05-29T01:10:46;100154.50;;;13.23;60.73
76448;BME280;65284;51.040;13.722;2023-05-29T01:13:22;100151.38;;;13.19;60.79
76448;BME280;65284;51.040;13.722;2023-05-29T01:15:58;100152.22;;;13.12;61.17
76448;BME280;65284;51.040;13.722;2023-05-29T01:18:47;100143.78;;;13.00;61.36
76448;BME280;65284;51.040;13.722;2023-05-29T01:24:21;100150.41;;;13.04;61.42
76448;BME280;65284;51.040;13.722;2023-05-29T01:27:00;100152.78;;;13.38;60.36
76448;BME280;65284;51.040;13.722;2023-05-29T01:29:32;100163.81;;;12.96;61.21
76448;BME280;65284;51.040;13.722;2023-05-29T01:32:01;100160.44;;;12.55;62.26
76448;BME280;65284;51.040;13.722;2023-05-29T01:34:28;100162.34;;;12.85;62.02
76448;BME280;65284;51.040;13.722;2023-05-29T01:36:55;100166.16;;;12.91;61.53
76448;BME280;65284;51.040;13.722;2023-05-29T01:39:21;100160.84;;;12.83;61.42
76448;BME280;65284;51.040;13.722;2023-05-29T01:41:49;100166.38;;;12.73;61.76
76448;BME280;65284;51.040;13.722;2023-05-29T01:44:17;100157.97;;;12.92;61.28
76448;BME280;65284;51.040;13.722;2023-05-29T01:46:44;100158.94;;;12.52;62.70
76448;BME280;65284;51.040;13.722;2023-05-29T01:49:12;100162.53;;;12.75;61.94
76448;BME280;65284;51.040;13.722;2023-05-29T01:51:42;100170.22;;;12.62;61.76
76448;BME280;65284;51.040;13.722;2023-05-29T01:54:09;100156.97;;;12.29;62.80
76448;BME280;65284;51.040;13.722;2023-05-29T01:56:36;100162.59;;;12.51;62.20
76448;BME280;65284;51.040;13.722;2023-05-29T01:59:03;100161.25;;;12.55;61.97
76448;BME280;65284;51.040;13.722;2023-05-29T02:01:30;100153.97;;;12.41;62.06
76448;BME280;65284;51.040;13.722;2023-05-29T02:03:57;100153.47;;;12.45;62.51
76448;BME280;65284;51.040;13.722;2023-05-29T02:06:24;100154.63;;;12.35;62.46
76448;BME280;65284;51.040;13.722;2023-05-29T02:08:50;100158.31;;;12.25;62.91
76448;BME280;65284;51.040;13.722;2023-05-29T02:11:17;100157.00;;;12.13;62.76
76448;BME280;65284;51.040;13.722;2023-05-29T02:13:43;100156.31;;;12.19;62.47
76448;BME280;65284;51.040;13.722;2023-05-29T02:16:10;100163.38;;;12.68;61.64
76448;BME280;65284;51.040;13.722;2023-05-29T02:18:36;100165.81;;;12.14;62.12
76448;BME280;65284;51.040;13.722;2023-05-29T02:21:03;100167.97;;;12.02;62.61
76448;BME280;65284;51.040;13.722;2023-05-29T02:23:29;100164.63;;;12.24;62.23
76448;BME280;65284;51.040;13.722;2023-05-29T02:25:56;100163.94;;;12.39;62.18
76448;BME280;65284;51.040;13.722;2023-05-29T02:28:22;100165.28;;;12.43;61.59
76448;BME280;65284;51.040;13.722;2023-05-29T02:30:48;100169.78;;;12.34;61.63
76448;BME280;65284;51.040;13.722;2023-05-29T02:33:15;100173.28;;;12.26;62.20
76448;BME280;65284;51.040;13.722;2023-05-29T02:35:42;100173.63;;;12.23;62.28
76448;BME280;65284;51.040;13.722;2023-05-29T02:38:08;100172.97;;;12.13;62.60
76448;BME280;65284;51.040;13.722;2023-05-29T02:40:34;100179.06;;;11.81;63.23
76448;BME280;65284;51.040;13.722;2023-05-29T02:43:01;100185.50;;;11.62;63.98
76448;BME280;65284;51.040;13.722;2023-05-29T02:45:27;100183.53;;;11.64;63.62
76448;BME280;65284;51.040;13.722;2023-05-29T02:47:54;100188.25;;;11.87;63.52
76448;BME280;65284;51.040;13.722;2023-05-29T02:50:20;100193.50;;;11.70;63.49
76448;BME280;65284;51.040;13.722;2023-05-29T02:52:47;100194.16;;;11.56;63.96
76448;BME280;65284;51.040;13.722;2023-05-29T02:55:15;100201.16;;;11.65;63.47
76448;BME280;65284;51.040;13.722;2023-05-29T02:57:41;100201.47;;;11.62;63.49
76448;BME280;65284;51.040;13.722;2023-05-29T03:00:08;100207.13;;;11.59;63.22
76448;BME280;65284;51.040;13.722;2023-05-29T03:02:35;100207.31;;;11.74;62.90
76448;BME280;65284;51.040;13.722;2023-05-29T03:05:02;100211.81;;;11.73;63.29
76448;BME280;65284;51.040;13.722;2023-05-29T03:07:29;100213.50;;;11.82;62.61
76448;BME280;65284;51.040;13.722;2023-05-29T03:09:55;100224.13;;;11.82;62.87
76448;BME280;65284;51.040;13.722;2023-05-29T03:12:25;100225.78;;;11.67;63.13
76448;BME280;65284;51.040;13.722;2023-05-29T03:14:54;100228.41;;;11.59;63.81
76448;BME280;65284;51.040;13.722;2023-05-29T03:17:22;100231.25;;;11.57;63.53
76448;BME280;65284;51.040;13.722;2023-05-29T03:19:49;100230.75;;;11.70;63.35
76448;BME280;65284;51.040;13.722;2023-05-29T03:22:15;100229.47;;;11.74;63.39
76448;BME280;65284;51.040;13.722;2023-05-29T03:24:42;100222.03;;;11.44;64.08
76448;BME280;65284;51.040;13.722;2023-05-29T03:27:08;100227.06;;;11.55;64.44
76448;BME280;65284;51.040;13.722;2023-05-29T03:29:35;100223.00;;;11.34;64.99
76448;BME280;65284;51.040;13.722;2023-05-29T03:32:02;100227.41;;;11.52;64.88
76448;BME280;65284;51.040;13.722;2023-05-29T03:34:28;100237.31;;;11.42;65.39
76448;BME280;65284;51.040;13.722;2023-05-29T03:36:54;100231.31;;;11.31;67.54
76448;BME280;65284;51.040;13.722;2023-05-29T03:39:21;100227.91;;;11.55;67.04
76448;BME280;65284;51.040;13.722;2023-05-29T03:41:47;100229.06;;;11.10;69.86
76448;BME280;65284;51.040;13.722;2023-05-29T03:44:14;100234.50;;;11.01;69.91
76448;BME280;65284;51.040;13.722;2023-05-29T03:46:40;100236.31;;;11.00;71.93
76448;BME280;65284;51.040;13.722;2023-05-29T03:49:07;100238.34;;;11.06;71.17
76448;BME280;65284;51.040;13.722;2023-05-29T03:51:33;100235.84;;;10.79;72.85
76448;BME280;65284;51.040;13.722;2023-05-29T03:54:00;100237.94;;;10.93;72.03
76448;BME280;65284;51.040;13.722;2023-05-29T03:56:26;100240.38;;;11.12;71.59
76448;BME280;65284;51.040;13.722;2023-05-29T03:58:53;100248.91;;;11.32;70.44
76448;BME280;65284;51.040;13.722;2023-05-29T04:01:19;100236.31;;;11.34;69.84
76448;BME280;65284;51.040;13.722;2023-05-29T04:03:46;100239.25;;;11.23;69.99
76448;BME280;65284;51.040;13.722;2023-05-29T04:06:12;100248.22;;;11.65;68.45
76448;BME280;65284;51.040;13.722;2023-05-29T04:08:39;100246.41;;;11.73;67.95
76448;BME280;65284;51.040;13.722;2023-05-29T04:11:05;100247.09;;;11.83;67.79
76448;BME280;65284;51.040;13.722;2023-05-29T04:13:32;100250.81;;;11.99;67.22
76448;BME280;65284;51.040;13.722;2023-05-29T04:15:58;100256.81;;;12.09;66.89
76448;BME280;65284;51.040;13.722;2023-05-29T04:18:25;100256.16;;;12.15;67.00
76448;BME280;65284;51.040;13.722;2023-05-29T04:20:52;100260.16;;;12.11;66.81
76448;BME280;65284;51.040;13.722;2023-05-29T04:23:20;100255.81;;;12.02;67.29
76448;BME280;65284;51.040;13.722;2023-05-29T04:25:46;100255.16;;;12.08;65.79
76448;BME280;65284;51.040;13.722;2023-05-29T04:28:13;100260.31;;;12.18;66.33
76448;BME280;65284;51.040;13.722;2023-05-29T04:30:39;100260.78;;;11.89;65.82
76448;BME280;65284;51.040;13.722;2023-05-29T04:33:08;100262.78;;;12.03;65.12
76448;BME280;65284;51.040;13.722;2023-05-29T04:35:36;100262.50;;;12.22;64.90
76448;BME280;65284;51.040;13.722;2023-05-29T04:38:02;100259.16;;;12.45;64.28
76448;BME280;65284;51.040;13.722;2023-05-29T04:40:31;100268.50;;;12.16;64.98
76448;BME280;65284;51.040;13.722;2023-05-29T04:42:58;100270.84;;;12.27;64.86
76448;BME280;65284;51.040;13.722;2023-05-29T04:45:26;100278.66;;;12.45;64.39
76448;BME280;65284;51.040;13.722;2023-05-29T04:47:54;100276.97;;;12.44;63.91
76448;BME280;65284;51.040;13.722;2023-05-29T04:50:22;100280.13;;;12.23;64.30
76448;BME280;65284;51.040;13.722;2023-05-29T04:52:52;100275.50;;;12.66;63.18
76448;BME280;65284;51.040;13.722;2023-05-29T04:55:18;100282.47;;;12.84;62.70
76448;BME280;65284;51.040;13.722;2023-05-29T04:57:45;100276.47;;;12.90;62.65
76448;BME280;65284;51.040;13.722;2023-05-29T05:00:12;100265.41;;;13.01;61.79
76448;BME280;65284;51.040;13.722;2023-05-29T05:02:42;100274.41;;;13.08;61.47
76448;BME280;65284;51.040;13.722;2023-05-29T05:05:09;100265.25;;;13.11;61.58
76448;BME280;65284;51.040;13.722;2023-05-29T05:07:36;100275.44;;;12.99;62.14
76448;BME280;65284;51.040;13.722;2023-05-29T05:10:03;100268.19;;;13.24;61.51
76448;BME280;65284;51.040;13.722;2023-05-29T05:12:30;100272.34;;;13.43;60.87
76448;BME280;65284;51.040;13.722;2023-05-29T05:14:56;100262.66;;;13.42;60.65
76448;BME280;65284;51.040;13.722;2023-05-29T05:17:23;100269.97;;;13.48;60.12
76448;BME280;65284;51.040;13.722;2023-05-29T05:19:49;100268.34;;;13.31;60.44
76448;BME280;65284;51.040;13.722;2023-05-29T05:22:18;100276.47;;;13.46;60.39
76448;BME280;65284;51.040;13.722;2023-05-29T05:24:45;100268.72;;;13.67;60.19
76448;BME280;65284;51.040;13.722;2023-05-29T05:27:11;100277.22;;;13.71;59.86
76448;BME280;65284;51.040;13.722;2023-05-29T05:29:37;100279.06;;;13.70;60.30
76448;BME280;65284;51.040;13.722;2023-05-29T05:32:04;100277.13;;;13.56;60.09
76448;BME280;65284;51.040;13.722;2023-05-29T05:34:31;100282.16;;;13.42;60.39
76448;BME280;65284;51.040;13.722;2023-05-29T05:36:57;100278.91;;;13.63;60.49
76448;BME280;65284;51.040;13.722;2023-05-29T05:39:24;100283.97;;;13.50;60.33
76448;BME280;65284;51.040;13.722;2023-05-29T05:41:51;100281.19;;;13.75;59.74
76448;BME280;65284;51.040;13.722;2023-05-29T05:44:17;100277.06;;;13.95;58.85
76448;BME280;65284;51.040;13.722;2023-05-29T05:46:44;100277.06;;;13.95;59.42
76448;BME280;65284;51.040;13.722;2023-05-29T05:49:11;100276.81;;;13.82;59.38
76448;BME280;65284;51.040;13.722;2023-05-29T05:51:37;100276.81;;;13.82;59.31
76448;BME280;65284;51.040;13.722;2023-05-29T05:54:04;100276.72;;;13.98;59.40
76448;BME280;65284;51.040;13.722;2023-05-29T05:56:30;100282.28;;;14.20;58.37
76448;BME280;65284;51.040;13.722;2023-05-29T05:58:57;100289.66;;;14.09;58.63
76448;BME280;65284;51.040;13.722;2023-05-29T06:01:23;100281.38;;;14.27;58.61
76448;BME280;65284;51.040;13.722;2023-05-29T06:03:50;100282.06;;;14.21;58.14
76448;BME280;65284;51.040;13.722;2023-05-29T06:06:16;100283.72;;;14.22;58.35
76448;BME280;65284;51.040;13.722;2023-05-29T06:08:44;100280.91;;;14.47;58.11
76448;BME280;65284;51.040;13.722;2023-05-29T06:11:11;100291.94;;;14.67;57.68
76448;BME280;65284;51.040;13.722;2023-05-29T06:13:38;100285.81;;;14.58;57.73
76448;BME280;65284;51.040;13.722;2023-05-29T06:16:04;100291.72;;;14.53;58.18
76448;BME280;65284;51.040;13.722;2023-05-29T06:18:31;100289.56;;;14.72;57.40
76448;BME280;65284;51.040;13.722;2023-05-29T06:20:57;100288.31;;;14.97;56.82
76448;BME280;65284;51.040;13.722;2023-05-29T06:23:25;100288.75;;;14.86;56.41
76448;BME280;65284;51.040;13.722;2023-05-29T06:25:51;100294.16;;;14.78;55.96
76448;BME280;65284;51.040;13.722;2023-05-29T06:28:18;100296.97;;;14.99;56.15
76448;BME280;65284;51.040;13.722;2023-05-29T06:30:44;100290.19;;;15.12;56.10
76448;BME280;65284;51.040;13.722;2023-05-29T06:33:12;100296.81;;;15.16;56.17
76448;BME280;65284;51.040;13.722;2023-05-29T06:35:38;100299.03;;;15.27;55.20
76448;BME280;65284;51.040;13.722;2023-05-29T06:38:04;100291.63;;;15.29;55.54
76448;BME280;65284;51.040;13.722;2023-05-29T06:40:32;100306.97;;;15.35;55.14
76448;BME280;65284;51.040;13.722;2023-05-29T06:42:58;100302.69;;;15.56;54.88
76448;BME280;65284;51.040;13.722;2023-05-29T06:45:25;100303.81;;;15.46;55.24
76448;BME280;65284;51.040;13.722;2023-05-29T06:47:51;100303.00;;;15.46;55.12
76448;BME280;65284;51.040;13.722;2023-05-29T06:50:19;100305.50;;;15.47;55.15
76448;BME280;65284;51.040;13.722;2023-05-29T06:52:45;100313.25;;;15.42;54.96
76448;BME280;65284;51.040;13.722;2023-05-29T06:55:12;100312.22;;;15.43;54.34
76448;BME280;65284;51.040;13.722;2023-05-29T06:57:38;100309.91;;;15.40;54.57
76448;BME280;65284;51.040;13.722;2023-05-29T07:00:05;100311.59;;;15.71;53.74
76448;BME280;65284;51.040;13.722;2023-05-29T07:02:32;100315.81;;;15.95;52.76
76448;BME280;65284;51.040;13.722;2023-05-29T07:04:59;100312.78;;;15.83;52.19
76448;BME280;65284;51.040;13.722;2023-05-29T07:07:26;100315.84;;;15.80;52.21
76448;BME280;65284;51.040;13.722;2023-05-29T07:09:52;100315.53;;;15.60;52.85
76448;BME280;65284;51.040;13.722;2023-05-29T07:12:22;100320.97;;;15.67;53.12
76448;BME280;65284;51.040;13.722;2023-05-29T07:14:48;100315.28;;;15.70;53.33
76448;BME280;65284;51.040;13.722;2023-05-29T07:17:15;100317.19;;;15.91;53.05
76448;BME280;65284;51.040;13.722;2023-05-29T07:19:41;100322.38;;;15.92;53.31
76448;BME280;65284;51.040;13.722;2023-05-29T07:22:08;100318.94;;;15.99;53.25
76448;BME280;65284;51.040;13.722;2023-05-29T07:24:34;100321.06;;;16.03;53.17
76448;BME280;65284;51.040;13.722;2023-05-29T07:27:01;100318.63;;;16.08;52.40
76448;BME280;65284;51.040;13.722;2023-05-29T07:29:27;100328.50;;;16.08;52.53
76448;BME280;65284;51.040;13.722;2023-05-29T07:31:53;100319.59;;;16.22;52.82
76448;BME280;65284;51.040;13.722;2023-05-29T07:34:20;100325.47;;;16.32;52.61
76448;BME280;65284;51.040;13.722;2023-05-29T07:39:22;100327.25;;;16.47;50.66
76448;BME280;65284;51.040;13.722;2023-05-29T07:41:49;100325.81;;;16.66;50.51
76448;BME280;65284;51.040;13.722;2023-05-29T07:44:16;100332.25;;;16.93;49.75
76448;BME280;65284;51.040;13.722;2023-05-29T07:46:42;100329.56;;;16.71;49.43
76448;BME280;65284;51.040;13.722;2023-05-29T07:49:09;100325.22;;;16.70;49.83
76448;BME280;65284;51.040;13.722;2023-05-29T07:51:35;100341.03;;;16.65;50.35
76448;BME280;65284;51.040;13.722;2023-05-29T07:54:02;100327.88;;;16.92;49.32
76448;BME280;65284;51.040;13.722;2023-05-29T07:56:29;100338.78;;;16.83;49.55
76448;BME280;65284;51.040;13.722;2023-05-29T07:58:57;100341.47;;;16.83;49.85
76448;BME280;65284;51.040;13.722;2023-05-29T08:01:23;100325.19;;;16.92;49.64
76448;BME280;65284;51.040;13.722;2023-05-29T08:03:50;100345.66;;;16.93;49.66
76448;BME280;65284;51.040;13.722;2023-05-29T08:06:16;100342.63;;;17.02;49.67
76448;BME280;65284;51.040;13.722;2023-05-29T08:08:43;100332.72;;;17.03;49.71
76448;BME280;65284;51.040;13.722;2023-05-29T08:11:10;100333.56;;;17.03;49.91
76448;BME280;65284;51.040;13.722;2023-05-29T08:13:37;100334.88;;;17.14;50.00
76448;BME280;65284;51.040;13.722;2023-05-29T08:16:03;100338.91;;;17.32;49.72
76448;BME280;65284;51.040;13.722;2023-05-29T08:18:31;100339.63;;;17.47;49.36
76448;BME280;65284;51.040;13.722;2023-05-29T08:20:58;100342.94;;;17.42;50.10
76448;BME280;65284;51.040;13.722;2023-05-29T08:23:25;100341.50;;;17.46;49.28
76448;BME280;65284;51.040;13.722;2023-05-29T08:25:52;100339.47;;;17.55;49.21
76448;BME280;65284;51.040;13.722;2023-05-29T08:28:19;100335.34;;;17.59;48.94
76448;BME280;65284;51.040;13.722;2023-05-29T08:30:45;100330.63;;;17.61;49.20
76448;BME280;65284;51.040;13.722;2023-05-29T08:33:12;100329.28;;;17.79;48.92
76448;BME280;65284;51.040;13.722;2023-05-29T08:35:38;100328.72;;;17.90;48.92
76448;BME280;65284;51.040;13.722;2023-05-29T08:38:05;100339.88;;;17.87;48.95
76448;BME280;65284;51.040;13.722;2023-05-29T08:40:31;100329.63;;;18.10;47.24
76448;BME280;65284;51.040;13.722;2023-05-29T08:43:02;100328.81;;;18.16;47.52
76448;BME280;65284;51.040;13.722;2023-05-29T08:45:33;100317.84;;;18.18;48.37
76448;BME280;65284;51.040;13.722;2023-05-29T08:48:01;100319.28;;;18.14;48.61
76448;BME280;65284;51.040;13.722;2023-05-29T08:50:28;100318.47;;;18.13;45.31
76448;BME280;65284;51.040;13.722;2023-05-29T08:52:56;100321.84;;;18.55;42.66
76448;BME280;65284;51.040;13.722;2023-05-29T08:55:22;100324.72;;;18.47;41.67
76448;BME280;65284;51.040;13.722;2023-05-29T08:57:49;100326.78;;;18.45;41.25
76448;BME280;65284;51.040;13.722;2023-05-29T09:00:17;100327.00;;;18.50;40.29
76448;BME280;65284;51.040;13.722;2023-05-29T09:02:44;100317.69;;;18.59;39.55
76448;BME280;65284;51.040;13.722;2023-05-29T09:05:11;100318.97;;;18.70;40.51
76448;BME280;65284;51.040;13.722;2023-05-29T09:07:39;100324.59;;;18.75;40.82
76448;BME280;65284;51.040;13.722;2023-05-29T09:10:06;100316.03;;;18.72;41.95
76448;BME280;65284;51.040;13.722;2023-05-29T09:12:33;100319.81;;;18.84;42.00
76448;BME280;65284;51.040;13.722;2023-05-29T09:15:00;100327.47;;;18.94;41.63
76448;BME280;65284;51.040;13.722;2023-05-29T09:17:31;100314.22;;;18.92;41.54
76448;BME280;65284;51.040;13.722;2023-05-29T09:20:01;100316.09;;;19.05;42.16
76448;BME280;65284;51.040;13.722;2023-05-29T09:22:31;100325.59;;;19.21;42.04
76448;BME280;65284;51.040;13.722;2023-05-29T09:24:58;100333.06;;;19.12;41.61
76448;BME280;65284;51.040;13.722;2023-05-29T09:27:25;100316.69;;;19.00;41.42
76448;BME280;65284;51.040;13.722;2023-05-29T09:29:52;100318.13;;;19.09;41.75
76448;BME280;65284;51.040;13.722;2023-05-29T09:32:18;100315.66;;;19.08;41.82
76448;BME280;65284;51.040;13.722;2023-05-29T09:34:45;100313.97;;;19.27;40.65
76448;BME280;65284;51.040;13.722;2023-05-29T09:37:12;100319.34;;;19.27;40.94
76448;BME280;65284;51.040;13.722;2023-05-29T09:42:11;100323.47;;;19.36;40.70
76448;BME280;65284;51.040;13.722;2023-05-29T09:44:40;100329.28;;;19.46;40.25
76448;BME280;65284;51.040;13.722;2023-05-29T09:47:07;100328.84;;;19.49;40.28
76448;BME280;65284;51.040;13.722;2023-05-29T09:49:34;100344.34;;;19.61;40.27
76448;BME280;65284;51.040;13.722;2023-05-29T09:52:00;100319.50;;;19.59;40.17
76448;BME280;65284;51.040;13.722;2023-05-29T09:54:28;100320.06;;;19.81;39.98
76448;BME280;65284;51.040;13.722;2023-05-29T09:56:59;100309.72;;;19.71;39.49
76448;BME280;65284;51.040;13.722;2023-05-29T09:59:27;100316.28;;;19.88;39.00
76448;BME280;65284;51.040;13.722;2023-05-29T10:02:01;100316.72;;;19.85;39.52
76448;BME280;65284;51.040;13.722;2023-05-29T10:04:31;100309.06;;;19.82;38.63
76448;BME280;65284;51.040;13.722;2023-05-29T10:07:05;100312.06;;;19.99;38.92
76448;BME280;65284;51.040;13.722;2023-05-29T10:09:33;100305.44;;;20.02;38.97
76448;BME280;65284;51.040;13.722;2023-05-29T10:12:03;100313.72;;;20.07;38.23
76448;BME280;65284;51.040;13.722;2023-05-29T10:14:31;100314.56;;;20.00;38.18
76448;BME280;65284;51.040;13.722;2023-05-29T10:17:01;100313.09;;;20.05;38.53
76448;BME280;65284;51.040;13.722;2023-05-29T10:19:31;100307.13;;;19.96;38.16
76448;BME280;65284;51.040;13.722;2023-05-29T10:22:01;100323.50;;;20.01;38.23
76448;BME280;65284;51.040;13.722;2023-05-29T10:24:28;100311.31;;;19.92;38.49
76448;BME280;65284;51.040;13.722;2023-05-29T10:26:55;100319.97;;;20.00;38.44
76448;BME280;65284;51.040;13.722;2023-05-29T10:29:36;100307.09;;;20.03;38.36
76448;BME280;65284;51.040;13.722;2023-05-29T10:32:18;100314.06;;;20.17;38.51
76448;BME280;65284;51.040;13.722;2023-05-29T10:34:58;100315.28;;;20.21;38.02
76448;BME280;65284;51.040;13.722;2023-05-29T10:37:45;100302.31;;;20.36;38.13
76448;BME280;65284;51.040;13.722;2023-05-29T10:40:12;100289.75;;;20.55;38.20
76448;BME280;65284;51.040;13.722;2023-05-29T10:42:49;100304.91;;;20.50;37.68
76448;BME280;65284;51.040;13.722;2023-05-29T10:47:54;100292.03;;;20.20;37.63
76448;BME280;65284;51.040;13.722;2023-05-29T10:50:43;100296.59;;;20.26;38.14
76448;BME280;65284;51.040;13.722;2023-05-29T10:53:15;100291.88;;;20.46;37.77
76448;BME280;65284;51.040;13.722;2023-05-29T10:55:44;100298.59;;;20.69;37.63
76448;BME280;65284;51.040;13.722;2023-05-29T10:58:18;100284.22;;;20.75;37.73
76448;BME280;65284;51.040;13.722;2023-05-29T11:00:45;100295.13;;;20.62;37.57
76448;BME280;65284;51.040;13.722;2023-05-29T11:03:19;100298.91;;;20.54;37.67
76448;BME280;65284;51.040;13.722;2023-05-29T11:06:07;100285.47;;;20.73;37.67
76448;BME280;65284;51.040;13.722;2023-05-29T11:08:55;100294.91;;;20.88;37.30
76448;BME280;65284;51.040;13.722;2023-05-29T11:11:30;100294.50;;;20.85;37.33
76448;BME280;65284;51.040;13.722;2023-05-29T11:14:01;100286.91;;;21.00;37.13
76448;BME280;65284;51.040;13.722;2023-05-29T11:19:03;100278.69;;;20.88;37.08
76448;BME280;65284;51.040;13.722;2023-05-29T11:24:27;100277.38;;;20.98;36.84
76448;BME280;65284;51.040;13.722;2023-05-29T11:26:56;100268.53;;;21.09;36.28
76448;BME280;65284;51.040;13.722;2023-05-29T11:29:27;100285.78;;;21.08;36.66
76448;BME280;65284;51.040;13.722;2023-05-29T11:32:01;100274.97;;;21.08;36.96
76448;BME280;65284;51.040;13.722;2023-05-29T11:34:30;100268.47;;;21.16;37.04
76448;BME280;65284;51.040;13.722;2023-05-29T11:36:58;100269.84;;;21.43;36.69
76448;BME280;65284;51.040;13.722;2023-05-29T11:39:26;100274.50;;;21.54;36.87
76448;BME280;65284;51.040;13.722;2023-05-29T11:41:52;100262.53;;;21.62;36.53
76448;BME280;65284;51.040;13.722;2023-05-29T11:44:21;100272.00;;;21.71;36.15
76448;BME280;65284;51.040;13.722;2023-05-29T11:47:06;100280.41;;;21.63;36.44
76448;BME280;65284;51.040;13.722;2023-05-29T11:49:35;100282.19;;;21.32;36.50
76448;BME280;65284;51.040;13.722;2023-05-29T11:52:11;100282.53;;;21.18;37.38
76448;BME280;65284;51.040;13.722;2023-05-29T11:54:43;100274.50;;;20.93;37.44
76448;BME280;65284;51.040;13.722;2023-05-29T11:57:19;100270.53;;;21.13;37.13
76448;BME280;65284;51.040;13.722;2023-05-29T11:59:46;100273.41;;;21.19;37.22
76448;BME280;65284;51.040;13.722;2023-05-29T12:02:13;100263.72;;;21.11;36.77
76448;BME280;65284;51.040;13.722;2023-05-29T12:04:40;100265.22;;;21.25;37.27
76448;BME280;65284;51.040;13.722;2023-05-29T12:07:17;100275.56;;;21.53;36.61
76448;BME280;65284;51.040;13.722;2023-05-29T12:09:44;100257.44;;;21.35;36.34
76448;BME280;65284;51.040;13.722;2023-05-29T12:12:10;100258.47;;;21.34;36.31
76448;BME280;65284;51.040;13.722;2023-05-29T12:14:37;100258.78;;;21.63;36.22
76448;BME280;65284;51.040;13.722;2023-05-29T12:17:04;100264.16;;;21.81;35.55
76448;BME280;65284;51.040;13.722;2023-05-29T12:19:31;100266.59;;;21.71;35.89
76448;BME280;65284;51.040;13.722;2023-05-29T12:21:58;100252.94;;;21.66;35.40
76448;BME280;65284;51.040;13.722;2023-05-29T12:24:24;100251.91;;;21.79;36.08
76448;BME280;65284;51.040;13.722;2023-05-29T12:27:05;100256.78;;;21.89;35.82
76448;BME280;65284;51.040;13.722;2023-05-29T12:29:34;100248.25;;;21.73;36.04
76448;BME280;65284;51.040;13.722;2023-05-29T12:32:00;100259.16;;;21.67;36.17
76448;BME280;65284;51.040;13.722;2023-05-29T12:34:34;100257.41;;;21.72;35.81
76448;BME280;65284;51.040;13.722;2023-05-29T12:37:07;100254.88;;;21.77;35.78
76448;BME280;65284;51.040;13.722;2023-05-29T12:39:39;100253.28;;;21.70;35.71
76448;BME280;65284;51.040;13.722;2023-05-29T12:42:05;100241.25;;;21.84;34.77
76448;BME280;65284;51.040;13.722;2023-05-29T12:44:33;100242.03;;;21.73;35.43
76448;BME280;65284;51.040;13.722;2023-05-29T12:47:00;100238.91;;;21.88;34.65
76448;BME280;65284;51.040;13.722;2023-05-29T12:49:26;100227.81;;;22.08;34.93
76448;BME280;65284;51.040;13.722;2023-05-29T12:52:04;100227.41;;;22.22;34.40
76448;BME280;65284;51.040;13.722;2023-05-29T12:54:31;100245.44;;;22.40;34.68
76448;BME280;65284;51.040;13.722;2023-05-29T12:56:58;100240.00;;;22.29;34.38
76448;BME280;65284;51.040;13.722;2023-05-29T12:59:27;100233.53;;;22.41;34.51
76448;BME280;65284;51.040;13.722;2023-05-29T13:01:53;100232.72;;;22.41;34.24